sensor_id;sensor_type;location;lat;lon;timestamp;temperature;humidity
678;DHT22;321;48.814;9.132;2022-12-10T00:01:30;5.00;99.90
678;DHT22;321;48.814;9.132;2022-12-10T00:03:56;4.90;99.90
678;DHT22;321;48.814;9.132;2022-12-10T00:06:25;4.90;99.90
678;DHT22;321;48.814;9.132;2022-12-10T00:08:51;4.90;99.90
678;DHT22;321;48.814;9.132;2022-12-10T00:11:19;5.00;99.90
678;DHT22;321;48.814;9.132;2022-12-10T00:13:45;5.00;99.90
678;DHT22;321;48.814;9.132;2022-12-10T00:16:13;5.00;99.90
678;DHT22;321;48.814;9.132;2022-12-10T00:18:39;4.90;99.90
678;DHT22;321;48.814;9.132;2022-12-10T00:21:17;4.90;99.90
678;DHT22;321;48.814;9.132;2022-12-10T00:23:43;4.80;99.90
678;DHT22;321;48.814;9.132;2022-12-10T00:26:18;4.60;99.90
678;DHT22;321;48.814;9.132;2022-12-10T00:28:45;4.60;99.90
678;DHT22;321;48.814;9.132;2022-12-10T00:31:17;4.70;99.90
678;DHT22;321;48.814;9.132;2022-12-10T00:33:45;4.60;99.90
678;DHT22;321;48.814;9.132;2022-12-10T00:36:25;4.60;99.90
678;DHT22;321;48.814;9.132;2022-12-10T00:38:51;4.70;99.90
678;DHT22;321;48.814;9.132;2022-12-10T00:41:18;4.80;99.90
678;DHT22;321;48.814;9.132;2022-12-10T00:43:43;4.90;99.90
678;DHT22;321;48.814;9.132;2022-12-10T00:46:11;4.70;99.90
678;DHT22;321;48.814;9.132;2022-12-10T00:48:36;4.80;99.90
678;DHT22;321;48.814;9.132;2022-12-10T00:51:10;4.80;99.90
678;DHT22;321;48.814;9.132;2022-12-10T00:53:37;4.80;99.90
678;DHT22;321;48.814;9.132;2022-12-10T00:56:04;4.80;99.90
678;DHT22;321;48.814;9.132;2022-12-10T00:58:32;4.80;99.90
678;DHT22;321;48.814;9.132;2022-12-10T01:01:09;4.90;99.90
678;DHT22;321;48.814;9.132;2022-12-10T01:03:35;4.90;99.90
678;DHT22;321;48.814;9.132;2022-12-10T01:06:16;4.90;99.90
678;DHT22;321;48.814;9.132;2022-12-10T01:08:43;4.90;99.90
678;DHT22;321;48.814;9.132;2022-12-10T01:11:11;4.90;99.90
678;DHT22;321;48.814;9.132;2022-12-10T01:13:37;4.90;99.90
678;DHT22;321;48.814;9.132;2022-12-10T01:16:04;4.90;99.90
678;DHT22;321;48.814;9.132;2022-12-10T01:18:31;4.90;99.90
678;DHT22;321;48.814;9.132;2022-12-10T01:21:01;4.90;99.90
678;DHT22;321;48.814;9.132;2022-12-10T01:23:27;5.00;99.90
678;DHT22;321;48.814;9.132;2022-12-10T01:25:53;4.90;99.90
678;DHT22;321;48.814;9.132;2022-12-10T01:28:18;4.90;99.90
678;DHT22;321;48.814;9.132;2022-12-10T01:30:44;4.80;99.90
678;DHT22;321;48.814;9.132;2022-12-10T01:33:09;4.80;99.90
678;DHT22;321;48.814;9.132;2022-12-10T01:35:38;4.80;99.90
678;DHT22;321;48.814;9.132;2022-12-10T01:38:03;4.90;99.90
678;DHT22;321;48.814;9.132;2022-12-10T01:40:29;4.80;99.90
678;DHT22;321;48.814;9.132;2022-12-10T01:42:55;4.80;99.90
678;DHT22;321;48.814;9.132;2022-12-10T01:45:21;4.90;99.90
678;DHT22;321;48.814;9.132;2022-12-10T01:47:47;4.90;99.90
678;DHT22;321;48.814;9.132;2022-12-10T01:50:13;4.90;99.90
678;DHT22;321;48.814;9.132;2022-12-10T01:52:39;4.90;99.90
678;DHT22;321;48.814;9.132;2022-12-10T01:56:00;4.90;99.90
678;DHT22;321;48.814;9.132;2022-12-10T01:58:19;4.90;99.90
678;DHT22;321;48.814;9.132;2022-12-10T02:01:13;4.90;99.90
678;DHT22;321;48.814;9.132;2022-12-10T02:06:59;4.90;99.90
678;DHT22;321;48.814;9.132;2022-12-10T02:12:15;4.80;99.90
678;DHT22;321;48.814;9.132;2022-12-10T02:15:14;4.80;99.90
678;DHT22;321;48.814;9.132;2022-12-10T02:18:11;4.90;99.90
678;DHT22;321;48.814;9.132;2022-12-10T02:20:42;4.90;99.90
678;DHT22;321;48.814;9.132;2022-12-10T02:23:15;4.90;99.90
678;DHT22;321;48.814;9.132;2022-12-10T02:28:35;4.90;99.90
678;DHT22;321;48.814;9.132;2022-12-10T02:31:04;4.80;99.90
678;DHT22;321;48.814;9.132;2022-12-10T02:33:31;4.80;99.90
678;DHT22;321;48.814;9.132;2022-12-10T02:35:58;4.90;99.90
678;DHT22;321;48.814;9.132;2022-12-10T02:38:29;4.90;99.90
678;DHT22;321;48.814;9.132;2022-12-10T02:41:06;4.80;99.90
678;DHT22;321;48.814;9.132;2022-12-10T02:43:33;4.90;99.90
678;DHT22;321;48.814;9.132;2022-12-10T02:46:02;4.80;99.90
678;DHT22;321;48.814;9.132;2022-12-10T02:48:28;4.80;99.90
678;DHT22;321;48.814;9.132;2022-12-10T02:50:54;4.80;99.90
678;DHT22;321;48.814;9.132;2022-12-10T02:53:20;4.70;99.90
678;DHT22;321;48.814;9.132;2022-12-10T02:56:07;4.60;99.90
678;DHT22;321;48.814;9.132;2022-12-10T03:04:01;4.50;99.90
678;DHT22;321;48.814;9.132;2022-12-10T03:06:38;4.40;99.90
678;DHT22;321;48.814;9.132;2022-12-10T03:09:13;4.20;99.90
678;DHT22;321;48.814;9.132;2022-12-10T03:11:41;4.10;99.90
678;DHT22;321;48.814;9.132;2022-12-10T03:14:11;4.00;99.90
678;DHT22;321;48.814;9.132;2022-12-10T03:16:42;4.00;99.90
678;DHT22;321;48.814;9.132;2022-12-10T03:19:15;3.90;99.90
678;DHT22;321;48.814;9.132;2022-12-10T03:21:43;4.00;99.90
678;DHT22;321;48.814;9.132;2022-12-10T03:24:10;4.00;99.90
678;DHT22;321;48.814;9.132;2022-12-10T03:26:38;4.00;99.90
678;DHT22;321;48.814;9.132;2022-12-10T03:29:08;3.90;99.90
678;DHT22;321;48.814;9.132;2022-12-10T03:31:35;4.00;99.90
678;DHT22;321;48.814;9.132;2022-12-10T03:34:03;4.10;99.90
678;DHT22;321;48.814;9.132;2022-12-10T03:36:29;4.20;99.90
678;DHT22;321;48.814;9.132;2022-12-10T03:38:56;4.20;99.90
678;DHT22;321;48.814;9.132;2022-12-10T03:41:22;4.10;99.90
678;DHT22;321;48.814;9.132;2022-12-10T03:43:56;4.00;99.90
678;DHT22;321;48.814;9.132;2022-12-10T03:46:22;3.90;99.90
678;DHT22;321;48.814;9.132;2022-12-10T03:48:49;3.90;99.90
678;DHT22;321;48.814;9.132;2022-12-10T03:51:14;3.80;99.90
678;DHT22;321;48.814;9.132;2022-12-10T03:53:40;3.80;99.90
678;DHT22;321;48.814;9.132;2022-12-10T03:56:06;3.70;99.90
678;DHT22;321;48.814;9.132;2022-12-10T03:58:31;3.80;99.90
678;DHT22;321;48.814;9.132;2022-12-10T04:00:57;3.80;99.90
678;DHT22;321;48.814;9.132;2022-12-10T04:03:22;3.80;99.90
678;DHT22;321;48.814;9.132;2022-12-10T04:05:48;3.90;99.90
678;DHT22;321;48.814;9.132;2022-12-10T04:08:13;3.90;99.90
678;DHT22;321;48.814;9.132;2022-12-10T04:10:39;3.90;99.90
678;DHT22;321;48.814;9.132;2022-12-10T04:13:04;4.00;99.90
678;DHT22;321;48.814;9.132;2022-12-10T04:15:49;4.00;99.90
678;DHT22;321;48.814;9.132;2022-12-10T04:18:55;4.00;99.90
678;DHT22;321;48.814;9.132;2022-12-10T04:21:21;4.10;99.90
678;DHT22;321;48.814;9.132;2022-12-10T04:24:10;4.10;99.90
678;DHT22;321;48.814;9.132;2022-12-10T04:26:55;4.20;99.90
678;DHT22;321;48.814;9.132;2022-12-10T04:29:26;4.10;99.90
678;DHT22;321;48.814;9.132;2022-12-10T04:31:53;4.00;99.90
678;DHT22;321;48.814;9.132;2022-12-10T04:34:19;4.00;99.90
678;DHT22;321;48.814;9.132;2022-12-10T04:36:45;4.00;99.90
678;DHT22;321;48.814;9.132;2022-12-10T04:39:10;4.00;99.90
678;DHT22;321;48.814;9.132;2022-12-10T04:41:39;4.00;99.90
678;DHT22;321;48.814;9.132;2022-12-10T04:44:05;4.00;99.90
678;DHT22;321;48.814;9.132;2022-12-10T04:46:30;4.00;99.90
678;DHT22;321;48.814;9.132;2022-12-10T04:48:56;4.10;99.90
678;DHT22;321;48.814;9.132;2022-12-10T04:51:21;4.20;99.90
678;DHT22;321;48.814;9.132;2022-12-10T04:53:47;4.20;99.90
678;DHT22;321;48.814;9.132;2022-12-10T04:56:12;4.10;99.90
678;DHT22;321;48.814;9.132;2022-12-10T04:58:38;4.20;99.90
678;DHT22;321;48.814;9.132;2022-12-10T05:01:06;4.20;99.90
678;DHT22;321;48.814;9.132;2022-12-10T05:03:33;4.30;99.90
678;DHT22;321;48.814;9.132;2022-12-10T05:06:09;4.20;99.90
678;DHT22;321;48.814;9.132;2022-12-10T05:08:35;4.40;99.90
678;DHT22;321;48.814;9.132;2022-12-10T05:11:06;4.40;99.90
678;DHT22;321;48.814;9.132;2022-12-10T05:13:32;4.20;99.90
678;DHT22;321;48.814;9.132;2022-12-10T05:16:00;4.20;99.90
678;DHT22;321;48.814;9.132;2022-12-10T05:18:26;4.00;99.90
678;DHT22;321;48.814;9.132;2022-12-10T05:20:51;4.00;99.90
678;DHT22;321;48.814;9.132;2022-12-10T05:23:17;4.10;99.90
678;DHT22;321;48.814;9.132;2022-12-10T05:26:06;4.00;99.90
678;DHT22;321;48.814;9.132;2022-12-10T05:28:35;4.00;99.90
678;DHT22;321;48.814;9.132;2022-12-10T05:31:01;4.00;99.90
678;DHT22;321;48.814;9.132;2022-12-10T05:33:27;4.00;99.90
678;DHT22;321;48.814;9.132;2022-12-10T05:35:58;3.90;99.90
678;DHT22;321;48.814;9.132;2022-12-10T05:38:25;3.90;99.90
678;DHT22;321;48.814;9.132;2022-12-10T05:40:51;3.90;99.90
678;DHT22;321;48.814;9.132;2022-12-10T05:43:17;3.70;99.90
678;DHT22;321;48.814;9.132;2022-12-10T05:45:43;3.80;99.90
678;DHT22;321;48.814;9.132;2022-12-10T05:48:10;3.90;99.90
678;DHT22;321;48.814;9.132;2022-12-10T05:50:36;4.00;99.90
678;DHT22;321;48.814;9.132;2022-12-10T05:53:02;4.00;99.90
678;DHT22;321;48.814;9.132;2022-12-10T05:55:28;3.80;99.90
678;DHT22;321;48.814;9.132;2022-12-10T05:57:55;3.80;99.90
678;DHT22;321;48.814;9.132;2022-12-10T06:00:20;3.70;99.90
678;DHT22;321;48.814;9.132;2022-12-10T06:02:49;3.60;99.90
678;DHT22;321;48.814;9.132;2022-12-10T06:05:15;3.60;99.90
678;DHT22;321;48.814;9.132;2022-12-10T06:07:40;3.60;99.90
678;DHT22;321;48.814;9.132;2022-12-10T06:10:06;3.60;99.90
678;DHT22;321;48.814;9.132;2022-12-10T06:12:31;3.60;99.90
678;DHT22;321;48.814;9.132;2022-12-10T06:14:57;3.70;99.90
678;DHT22;321;48.814;9.132;2022-12-10T06:17:23;3.70;99.90
678;DHT22;321;48.814;9.132;2022-12-10T06:19:48;3.70;99.90
678;DHT22;321;48.814;9.132;2022-12-10T06:22:13;3.90;99.90
678;DHT22;321;48.814;9.132;2022-12-10T06:24:39;3.90;99.90
678;DHT22;321;48.814;9.132;2022-12-10T06:27:04;3.90;99.90
678;DHT22;321;48.814;9.132;2022-12-10T06:29:30;4.00;99.90
678;DHT22;321;48.814;9.132;2022-12-10T06:31:56;4.10;99.90
678;DHT22;321;48.814;9.132;2022-12-10T06:34:21;4.00;99.90
678;DHT22;321;48.814;9.132;2022-12-10T06:36:47;3.80;99.90
678;DHT22;321;48.814;9.132;2022-12-10T06:39:13;3.90;99.90
678;DHT22;321;48.814;9.132;2022-12-10T06:41:38;3.90;99.90
678;DHT22;321;48.814;9.132;2022-12-10T06:44:07;3.90;99.90
678;DHT22;321;48.814;9.132;2022-12-10T06:46:33;3.90;99.90
678;DHT22;321;48.814;9.132;2022-12-10T06:48:58;4.10;99.90
678;DHT22;321;48.814;9.132;2022-12-10T06:51:24;4.10;99.90
678;DHT22;321;48.814;9.132;2022-12-10T06:53:49;4.10;99.90
678;DHT22;321;48.814;9.132;2022-12-10T06:56:17;4.10;99.90
678;DHT22;321;48.814;9.132;2022-12-10T06:58:44;4.10;99.90
678;DHT22;321;48.814;9.132;2022-12-10T07:01:19;4.10;99.90
678;DHT22;321;48.814;9.132;2022-12-10T07:03:52;4.10;99.90
678;DHT22;321;48.814;9.132;2022-12-10T07:06:18;4.20;99.90
678;DHT22;321;48.814;9.132;2022-12-10T07:08:44;4.20;99.90
678;DHT22;321;48.814;9.132;2022-12-10T07:11:12;4.20;99.90
678;DHT22;321;48.814;9.132;2022-12-10T07:13:38;4.20;99.90
678;DHT22;321;48.814;9.132;2022-12-10T07:16:26;4.00;99.90
678;DHT22;321;48.814;9.132;2022-12-10T07:18:54;4.10;99.90
678;DHT22;321;48.814;9.132;2022-12-10T07:21:28;4.10;99.90
678;DHT22;321;48.814;9.132;2022-12-10T07:23:56;4.20;99.90
678;DHT22;321;48.814;9.132;2022-12-10T07:26:28;4.20;99.90
678;DHT22;321;48.814;9.132;2022-12-10T07:28:54;4.10;99.90
678;DHT22;321;48.814;9.132;2022-12-10T07:31:21;4.20;99.90
678;DHT22;321;48.814;9.132;2022-12-10T07:33:50;4.30;99.90
678;DHT22;321;48.814;9.132;2022-12-10T07:36:17;4.30;99.90
678;DHT22;321;48.814;9.132;2022-12-10T07:38:43;4.20;99.90
678;DHT22;321;48.814;9.132;2022-12-10T07:41:11;4.10;99.90
678;DHT22;321;48.814;9.132;2022-12-10T07:43:39;4.20;99.90
678;DHT22;321;48.814;9.132;2022-12-10T07:46:07;4.20;99.90
678;DHT22;321;48.814;9.132;2022-12-10T07:48:37;4.20;99.90
678;DHT22;321;48.814;9.132;2022-12-10T07:51:03;4.20;99.90
678;DHT22;321;48.814;9.132;2022-12-10T07:53:29;4.10;99.90
678;DHT22;321;48.814;9.132;2022-12-10T07:55:55;4.10;99.90
678;DHT22;321;48.814;9.132;2022-12-10T07:58:20;4.30;99.90
678;DHT22;321;48.814;9.132;2022-12-10T08:00:46;4.30;99.90
678;DHT22;321;48.814;9.132;2022-12-10T08:03:11;4.30;99.90
678;DHT22;321;48.814;9.132;2022-12-10T08:05:37;4.40;99.90
678;DHT22;321;48.814;9.132;2022-12-10T08:08:03;4.20;99.90
678;DHT22;321;48.814;9.132;2022-12-10T08:10:28;4.30;99.90
678;DHT22;321;48.814;9.132;2022-12-10T08:12:54;4.30;99.90
678;DHT22;321;48.814;9.132;2022-12-10T08:15:20;4.20;99.90
678;DHT22;321;48.814;9.132;2022-12-10T08:17:46;4.20;99.90
678;DHT22;321;48.814;9.132;2022-12-10T08:20:12;4.20;99.90
678;DHT22;321;48.814;9.132;2022-12-10T08:22:38;4.30;99.90
678;DHT22;321;48.814;9.132;2022-12-10T08:25:04;4.20;99.90
678;DHT22;321;48.814;9.132;2022-12-10T08:27:30;4.20;99.90
678;DHT22;321;48.814;9.132;2022-12-10T08:29:56;4.20;99.90
678;DHT22;321;48.814;9.132;2022-12-10T08:32:21;4.30;99.90
678;DHT22;321;48.814;9.132;2022-12-10T08:34:47;4.20;99.90
678;DHT22;321;48.814;9.132;2022-12-10T08:37:13;4.30;99.90
678;DHT22;321;48.814;9.132;2022-12-10T08:39:39;4.40;99.90
678;DHT22;321;48.814;9.132;2022-12-10T08:42:05;4.40;99.90
678;DHT22;321;48.814;9.132;2022-12-10T08:44:31;4.40;99.90
678;DHT22;321;48.814;9.132;2022-12-10T08:46:56;4.50;99.90
678;DHT22;321;48.814;9.132;2022-12-10T08:49:22;4.40;99.90
678;DHT22;321;48.814;9.132;2022-12-10T08:51:47;4.30;99.90
678;DHT22;321;48.814;9.132;2022-12-10T08:54:13;4.50;99.90
678;DHT22;321;48.814;9.132;2022-12-10T08:56:38;4.70;99.90
678;DHT22;321;48.814;9.132;2022-12-10T08:59:05;4.60;99.90
678;DHT22;321;48.814;9.132;2022-12-10T09:01:31;4.60;99.90
678;DHT22;321;48.814;9.132;2022-12-10T09:03:56;4.80;99.90
678;DHT22;321;48.814;9.132;2022-12-10T09:06:23;4.80;99.90
678;DHT22;321;48.814;9.132;2022-12-10T09:08:49;5.00;99.90
678;DHT22;321;48.814;9.132;2022-12-10T09:13:46;4.90;99.90
678;DHT22;321;48.814;9.132;2022-12-10T09:16:12;4.90;99.90
678;DHT22;321;48.814;9.132;2022-12-10T09:18:39;4.90;99.90
678;DHT22;321;48.814;9.132;2022-12-10T09:21:10;4.90;99.90
678;DHT22;321;48.814;9.132;2022-12-10T09:23:38;4.80;99.90
678;DHT22;321;48.814;9.132;2022-12-10T09:26:12;4.80;99.90
678;DHT22;321;48.814;9.132;2022-12-10T09:28:38;4.70;99.90
678;DHT22;321;48.814;9.132;2022-12-10T09:31:05;4.80;99.90
678;DHT22;321;48.814;9.132;2022-12-10T09:33:31;4.90;99.90
678;DHT22;321;48.814;9.132;2022-12-10T09:35:57;4.90;99.90
678;DHT22;321;48.814;9.132;2022-12-10T09:38:24;5.00;99.90
678;DHT22;321;48.814;9.132;2022-12-10T09:41:04;5.10;99.90
678;DHT22;321;48.814;9.132;2022-12-10T09:43:46;5.30;99.90
678;DHT22;321;48.814;9.132;2022-12-10T09:51:37;5.30;99.90
678;DHT22;321;48.814;9.132;2022-12-10T09:54:21;5.10;99.90
678;DHT22;321;48.814;9.132;2022-12-10T09:56:50;5.30;99.90
678;DHT22;321;48.814;9.132;2022-12-10T09:59:38;5.30;99.90
678;DHT22;321;48.814;9.132;2022-12-10T10:02:29;5.30;99.90
678;DHT22;321;48.814;9.132;2022-12-10T10:05:20;5.50;99.90
678;DHT22;321;48.814;9.132;2022-12-10T10:07:59;5.40;99.90
678;DHT22;321;48.814;9.132;2022-12-10T10:10:32;5.40;99.90
678;DHT22;321;48.814;9.132;2022-12-10T10:13:11;5.40;99.90
678;DHT22;321;48.814;9.132;2022-12-10T10:15:41;5.40;99.90
678;DHT22;321;48.814;9.132;2022-12-10T10:18:41;5.50;99.90
678;DHT22;321;48.814;9.132;2022-12-10T10:21:35;5.50;99.90
678;DHT22;321;48.814;9.132;2022-12-10T10:24:02;5.60;99.90
678;DHT22;321;48.814;9.132;2022-12-10T10:26:28;5.50;99.90
678;DHT22;321;48.814;9.132;2022-12-10T10:29:00;5.50;99.90
678;DHT22;321;48.814;9.132;2022-12-10T10:31:29;5.50;99.90
678;DHT22;321;48.814;9.132;2022-12-10T10:33:58;5.40;99.90
678;DHT22;321;48.814;9.132;2022-12-10T10:36:29;5.50;99.90
678;DHT22;321;48.814;9.132;2022-12-10T10:38:55;5.60;99.90
678;DHT22;321;48.814;9.132;2022-12-10T10:41:23;5.60;99.90
678;DHT22;321;48.814;9.132;2022-12-10T10:43:58;5.60;99.90
678;DHT22;321;48.814;9.132;2022-12-10T10:46:25;5.50;99.90
678;DHT22;321;48.814;9.132;2022-12-10T10:48:51;5.60;99.90
678;DHT22;321;48.814;9.132;2022-12-10T10:51:21;5.60;99.90
678;DHT22;321;48.814;9.132;2022-12-10T10:53:52;5.60;99.90
678;DHT22;321;48.814;9.132;2022-12-10T10:56:21;5.40;99.90
678;DHT22;321;48.814;9.132;2022-12-10T10:59:05;5.20;99.90
678;DHT22;321;48.814;9.132;2022-12-10T11:04:18;5.20;99.90
678;DHT22;321;48.814;9.132;2022-12-10T11:06:47;5.40;99.90
678;DHT22;321;48.814;9.132;2022-12-10T11:09:21;5.50;99.90
678;DHT22;321;48.814;9.132;2022-12-10T11:11:52;5.70;99.90
678;DHT22;321;48.814;9.132;2022-12-10T11:16:51;5.60;99.90
678;DHT22;321;48.814;9.132;2022-12-10T11:19:24;5.50;99.90
678;DHT22;321;48.814;9.132;2022-12-10T11:21:52;5.50;99.90
678;DHT22;321;48.814;9.132;2022-12-10T11:24:19;5.60;99.90
678;DHT22;321;48.814;9.132;2022-12-10T11:27:02;5.70;99.90
678;DHT22;321;48.814;9.132;2022-12-10T11:32:39;5.80;99.90
678;DHT22;321;48.814;9.132;2022-12-10T11:35:24;5.60;99.90
678;DHT22;321;48.814;9.132;2022-12-10T11:38:20;5.60;99.90
678;DHT22;321;48.814;9.132;2022-12-10T11:44:23;5.80;99.90
678;DHT22;321;48.814;9.132;2022-12-10T12:00:21;5.80;99.90
678;DHT22;321;48.814;9.132;2022-12-10T12:05:35;5.90;99.90
678;DHT22;321;48.814;9.132;2022-12-10T12:13:18;5.90;99.90
678;DHT22;321;48.814;9.132;2022-12-10T12:16:00;5.90;99.90
678;DHT22;321;48.814;9.132;2022-12-10T12:21:04;5.90;99.90
678;DHT22;321;48.814;9.132;2022-12-10T12:23:49;5.80;99.90
678;DHT22;321;48.814;9.132;2022-12-10T12:26:42;5.90;99.90
678;DHT22;321;48.814;9.132;2022-12-10T12:31:46;6.10;99.90
678;DHT22;321;48.814;9.132;2022-12-10T12:34:26;6.20;99.90
678;DHT22;321;48.814;9.132;2022-12-10T12:36:54;5.80;99.90
678;DHT22;321;48.814;9.132;2022-12-10T12:42:31;5.60;99.90
678;DHT22;321;48.814;9.132;2022-12-10T12:45:10;5.80;99.90
678;DHT22;321;48.814;9.132;2022-12-10T12:47:51;5.60;99.90
678;DHT22;321;48.814;9.132;2022-12-10T12:50:26;5.40;99.90
678;DHT22;321;48.814;9.132;2022-12-10T12:52:58;5.30;99.90
678;DHT22;321;48.814;9.132;2022-12-10T13:01:29;5.20;99.90
678;DHT22;321;48.814;9.132;2022-12-10T13:03:56;5.10;99.90
678;DHT22;321;48.814;9.132;2022-12-10T13:06:25;5.30;99.90
678;DHT22;321;48.814;9.132;2022-12-10T13:11:44;5.20;99.90
678;DHT22;321;48.814;9.132;2022-12-10T13:14:17;5.20;99.90
678;DHT22;321;48.814;9.132;2022-12-10T13:17:01;5.40;99.90
678;DHT22;321;48.814;9.132;2022-12-10T13:19:29;5.50;99.90
678;DHT22;321;48.814;9.132;2022-12-10T13:22:10;5.50;99.90
678;DHT22;321;48.814;9.132;2022-12-10T13:24:43;5.60;99.90
678;DHT22;321;48.814;9.132;2022-12-10T13:27:16;5.50;99.90
678;DHT22;321;48.814;9.132;2022-12-10T13:29:54;5.30;99.90
678;DHT22;321;48.814;9.132;2022-12-10T13:32:24;5.10;99.90
678;DHT22;321;48.814;9.132;2022-12-10T13:37:55;4.70;99.90
678;DHT22;321;48.814;9.132;2022-12-10T13:43:29;4.80;99.90
678;DHT22;321;48.814;9.132;2022-12-10T13:46:35;4.70;99.90
678;DHT22;321;48.814;9.132;2022-12-10T13:49:19;4.70;99.90
678;DHT22;321;48.814;9.132;2022-12-10T14:00:08;4.40;99.90
678;DHT22;321;48.814;9.132;2022-12-10T14:07:56;4.40;99.90
678;DHT22;321;48.814;9.132;2022-12-10T14:10:29;4.50;99.90
678;DHT22;321;48.814;9.132;2022-12-10T14:12:55;4.50;99.90
678;DHT22;321;48.814;9.132;2022-12-10T14:15:23;4.30;99.90
678;DHT22;321;48.814;9.132;2022-12-10T14:17:51;4.40;99.90
678;DHT22;321;48.814;9.132;2022-12-10T14:20:21;4.30;99.90
678;DHT22;321;48.814;9.132;2022-12-10T14:22:52;4.50;99.90
678;DHT22;321;48.814;9.132;2022-12-10T14:25:21;4.70;99.90
678;DHT22;321;48.814;9.132;2022-12-10T14:27:49;4.70;99.90
678;DHT22;321;48.814;9.132;2022-12-10T14:30:23;4.50;99.90
678;DHT22;321;48.814;9.132;2022-12-10T14:32:51;4.60;99.90
678;DHT22;321;48.814;9.132;2022-12-10T14:35:22;4.50;99.90
678;DHT22;321;48.814;9.132;2022-12-10T14:37:49;4.50;99.90
678;DHT22;321;48.814;9.132;2022-12-10T14:42:50;4.50;99.90
678;DHT22;321;48.814;9.132;2022-12-10T14:45:18;4.40;99.90
678;DHT22;321;48.814;9.132;2022-12-10T14:47:43;4.30;99.90
678;DHT22;321;48.814;9.132;2022-12-10T14:50:12;4.30;99.90
678;DHT22;321;48.814;9.132;2022-12-10T14:53:00;4.20;99.90
678;DHT22;321;48.814;9.132;2022-12-10T14:55:25;4.00;99.90
678;DHT22;321;48.814;9.132;2022-12-10T14:58:01;4.00;99.90
678;DHT22;321;48.814;9.132;2022-12-10T15:00:28;3.70;99.90
678;DHT22;321;48.814;9.132;2022-12-10T15:02:58;3.80;99.90
678;DHT22;321;48.814;9.132;2022-12-10T15:05:30;3.80;99.90
678;DHT22;321;48.814;9.132;2022-12-10T15:07:59;4.00;99.90
678;DHT22;321;48.814;9.132;2022-12-10T15:10:31;4.00;99.90
678;DHT22;321;48.814;9.132;2022-12-10T15:12:57;4.00;99.90
678;DHT22;321;48.814;9.132;2022-12-10T15:15:33;4.10;99.90
678;DHT22;321;48.814;9.132;2022-12-10T15:20:51;4.00;99.90
678;DHT22;321;48.814;9.132;2022-12-10T15:25:51;3.70;99.90
678;DHT22;321;48.814;9.132;2022-12-10T15:28:24;3.80;99.90
678;DHT22;321;48.814;9.132;2022-12-10T15:30:50;3.70;99.90
678;DHT22;321;48.814;9.132;2022-12-10T15:33:50;3.60;99.90
678;DHT22;321;48.814;9.132;2022-12-10T15:36:37;3.60;99.90
678;DHT22;321;48.814;9.132;2022-12-10T15:39:25;3.50;99.90
678;DHT22;321;48.814;9.132;2022-12-10T15:41:53;3.50;99.90
678;DHT22;321;48.814;9.132;2022-12-10T15:49:27;3.50;99.90
678;DHT22;321;48.814;9.132;2022-12-10T15:51:52;3.50;99.90
678;DHT22;321;48.814;9.132;2022-12-10T15:54:25;3.40;99.90
678;DHT22;321;48.814;9.132;2022-12-10T15:56:51;3.50;99.90
678;DHT22;321;48.814;9.132;2022-12-10T15:59:16;3.60;99.90
678;DHT22;321;48.814;9.132;2022-12-10T16:01:42;3.60;99.90
678;DHT22;321;48.814;9.132;2022-12-10T16:04:08;3.50;99.90
678;DHT22;321;48.814;9.132;2022-12-10T16:06:34;3.50;99.90
678;DHT22;321;48.814;9.132;2022-12-10T16:09:00;3.50;99.90
678;DHT22;321;48.814;9.132;2022-12-10T16:11:25;3.70;99.90
678;DHT22;321;48.814;9.132;2022-12-10T16:13:53;3.80;99.90
678;DHT22;321;48.814;9.132;2022-12-10T16:16:22;3.80;99.90
678;DHT22;321;48.814;9.132;2022-12-10T16:18:48;3.80;99.90
678;DHT22;321;48.814;9.132;2022-12-10T16:21:13;3.70;99.90
678;DHT22;321;48.814;9.132;2022-12-10T16:23:39;3.80;99.90
678;DHT22;321;48.814;9.132;2022-12-10T16:26:13;3.70;99.90
678;DHT22;321;48.814;9.132;2022-12-10T16:28:39;3.80;99.90
678;DHT22;321;48.814;9.132;2022-12-10T16:31:07;3.70;99.90
678;DHT22;321;48.814;9.132;2022-12-10T16:33:33;3.60;99.90
678;DHT22;321;48.814;9.132;2022-12-10T16:35:59;3.50;99.90
678;DHT22;321;48.814;9.132;2022-12-10T16:38:27;3.60;99.90
678;DHT22;321;48.814;9.132;2022-12-10T16:40:53;3.50;99.90
678;DHT22;321;48.814;9.132;2022-12-10T16:43:25;3.50;99.90
678;DHT22;321;48.814;9.132;2022-12-10T16:45:51;3.70;99.90
678;DHT22;321;48.814;9.132;2022-12-10T16:48:18;3.70;99.90
678;DHT22;321;48.814;9.132;2022-12-10T16:50:44;3.60;99.90
678;DHT22;321;48.814;9.132;2022-12-10T16:53:23;3.50;99.90
678;DHT22;321;48.814;9.132;2022-12-10T16:55:50;3.50;99.90
678;DHT22;321;48.814;9.132;2022-12-10T16:58:16;3.60;99.90
678;DHT22;321;48.814;9.132;2022-12-10T17:00:44;3.50;99.90
678;DHT22;321;48.814;9.132;2022-12-10T17:03:13;3.70;99.90
678;DHT22;321;48.814;9.132;2022-12-10T17:05:51;3.60;99.90
678;DHT22;321;48.814;9.132;2022-12-10T17:08:18;3.40;99.90
678;DHT22;321;48.814;9.132;2022-12-10T17:10:44;3.30;99.90
678;DHT22;321;48.814;9.132;2022-12-10T17:13:29;3.40;99.90
678;DHT22;321;48.814;9.132;2022-12-10T17:15:55;3.50;99.90
678;DHT22;321;48.814;9.132;2022-12-10T17:18:22;3.50;99.90
678;DHT22;321;48.814;9.132;2022-12-10T17:20:49;3.40;99.90
678;DHT22;321;48.814;9.132;2022-12-10T17:23:15;3.40;99.90
678;DHT22;321;48.814;9.132;2022-12-10T17:25:41;3.50;99.90
678;DHT22;321;48.814;9.132;2022-12-10T17:28:15;3.70;99.90
678;DHT22;321;48.814;9.132;2022-12-10T17:30:42;3.50;99.90
678;DHT22;321;48.814;9.132;2022-12-10T17:33:14;3.50;99.90
678;DHT22;321;48.814;9.132;2022-12-10T17:35:42;3.50;99.90
678;DHT22;321;48.814;9.132;2022-12-10T17:38:17;3.50;99.90
678;DHT22;321;48.814;9.132;2022-12-10T17:40:43;3.50;99.90
678;DHT22;321;48.814;9.132;2022-12-10T17:43:09;3.60;99.90
678;DHT22;321;48.814;9.132;2022-12-10T17:45:34;3.50;99.90
678;DHT22;321;48.814;9.132;2022-12-10T17:48:00;3.50;99.90
678;DHT22;321;48.814;9.132;2022-12-10T17:50:31;3.50;99.90
678;DHT22;321;48.814;9.132;2022-12-10T17:53:05;3.60;99.90
678;DHT22;321;48.814;9.132;2022-12-10T17:55:35;3.70;99.90
678;DHT22;321;48.814;9.132;2022-12-10T17:58:01;3.70;99.90
678;DHT22;321;48.814;9.132;2022-12-10T18:00:30;3.70;99.90
678;DHT22;321;48.814;9.132;2022-12-10T18:02:56;3.60;99.90
678;DHT22;321;48.814;9.132;2022-12-10T18:05:22;3.60;99.90
678;DHT22;321;48.814;9.132;2022-12-10T18:07:47;3.50;99.90
678;DHT22;321;48.814;9.132;2022-12-10T18:10:17;3.60;99.90
678;DHT22;321;48.814;9.132;2022-12-10T18:12:43;3.60;99.90
678;DHT22;321;48.814;9.132;2022-12-10T18:15:10;3.50;99.90
678;DHT22;321;48.814;9.132;2022-12-10T18:17:36;3.40;99.90
678;DHT22;321;48.814;9.132;2022-12-10T18:20:03;3.20;99.90
678;DHT22;321;48.814;9.132;2022-12-10T18:22:29;3.30;99.90
678;DHT22;321;48.814;9.132;2022-12-10T18:24:54;3.20;99.90
678;DHT22;321;48.814;9.132;2022-12-10T18:27:20;3.20;99.90
678;DHT22;321;48.814;9.132;2022-12-10T18:29:46;3.30;99.90
678;DHT22;321;48.814;9.132;2022-12-10T18:32:11;3.30;99.90
678;DHT22;321;48.814;9.132;2022-12-10T18:34:37;3.30;99.90
678;DHT22;321;48.814;9.132;2022-12-10T18:37:03;3.30;99.90
678;DHT22;321;48.814;9.132;2022-12-10T18:39:31;3.40;99.90
678;DHT22;321;48.814;9.132;2022-12-10T18:41:59;3.60;99.90
678;DHT22;321;48.814;9.132;2022-12-10T18:44:26;3.50;99.90
678;DHT22;321;48.814;9.132;2022-12-10T18:46:55;3.50;99.90
678;DHT22;321;48.814;9.132;2022-12-10T18:49:21;3.50;99.90
678;DHT22;321;48.814;9.132;2022-12-10T18:51:48;3.60;99.90
678;DHT22;321;48.814;9.132;2022-12-10T18:54:13;3.60;99.90